Back to race calendar

Airkool Walkington 10k Road Race, nr. Beverley, E. Yorkshire

10th July 2009

Results courtesy of Brian Richardson for Beverley AC. Updated 15/7/09
(This is a sortable table - click column heading)
Filter (choose one only!)
Surname:
Cat: Club:
PosForenameSurnameCatClubGradTime
1StuartCARMICHAELMCity Of Hull81.26%00:33:35
2SimonNEWTONMAskern77.85%00:34:39
3PhillipTAYLORMBridlington Road Runners77.62%00:34:45
4LanceKIRLEWM45East Hull Harriers82.57%00:35:49
5StephenRENNIEM50City Of Hull85.75%00:35:54
6ChrisHODGSONM45East Hull Harriers80.71%00:36:05
7PeteBAKERMCity Of Hull74.17%00:36:22
8StephenWOODM40Pocklington RR76.42%00:36:28
9PhilMc COYMEast Hull Harriers73.83%00:36:32
10NigelSISSONM40East Hull Harriers76.07%00:36:38
11AndrewMASTERMANM40Goole Vik Striders76.45%00:36:43
12JamesPEARSONMBeverley AC73.30%00:36:48
13MarkDALTONM45Beverley AC79.20%00:37:03
14RichardMAWMScarboro' AC74.59%00:37:06
15RoyLILLEYM40East Hull Harriers75.49%00:37:11
16JonMORGANM45Driffield Striders77.66%00:37:13
17JohnTRELFAM45Scarboro' AC78.22%00:37:14
18PeterFEILDING - SMITHMBeverley AC73.99%00:37:24
19AndrewGOODAIRMAskern73.93%00:37:26
20TonyBURGINM40White City Road Runners74.92%00:37:44
21StephenPEACOCKM45Beverley AC76.53%00:37:46
22DeanWINTERMAskern71.23%00:37:52
23EdwardWHITTLEMScarboro' AC70.61%00:38:12
24PaulCOLLINGWOODMAskern70.94%00:38:12
25MauriceRODWELLM45Doncaster AC76.72%00:38:15
26KieranBLOGGMCity Of Hull70.24%00:38:24
27MikeVINEGRADMEast Hull Harriers71.94%00:38:28
28JonathanHAZARDM 70.00%00:38:32
29KeithJOULESM45East Hull Harriers75.22%00:38:43
30JasonWESTMORELANDM40Rothwell Harriers72.40%00:38:46
31PaulBRUMBYM40City Of Hull72.74%00:38:52
32KevinSTOTTM45Rothwell Harriers75.96%00:38:56
33GavinBAKERM 69.07%00:39:03
34MatthewBLOOFIELDM 69.07%00:39:03
35JonathanSAGEM45Beverley AC75.60%00:39:07
36JohnKETLEYM40City Of Hull72.00%00:39:16
37DarrenRODMELLM 68.58%00:39:20
38VitoVERRECCHIAM40Withernsea Harriers71.85%00:39:21
39OliverJOHNSTONMBeverley AC68.40%00:39:26
40DaleANTCLIFFMRothwell Harriers68.26%00:39:31
41MatthewNETTLETONMKingston on Hull AC68.00%00:39:40
42MichaelBAGGOTTM55Goole Vik Striders78.86%00:39:42
43MarkKENDALL-LANSELLM45Scarboro' AC73.64%00:39:51
44StephenBURKEM 67.57%00:39:55
45JoaquinMARTINMCity Of Hull67.55%00:39:56
46PaulCLARKM40Beverley AC70.26%00:39:57
47CarlROBINSONMWoodkirk striders67.49%00:39:58
48NeilSCRUTONM60Scarboro' AC83.51%00:40:00
49AshleyBRIGGSM40Beverley AC70.02%00:40:05
50GrahamWILKINSONM50East Hull Harriers76.71%00:40:08
51RoyPARTINGTONM45 74.10%00:40:13
52MarkWILLIAMSONMHornsea Harriers68.81%00:40:13
53MarcBURNETTMCity Of Hull66.19%00:40:45
54IanHIRDM50City Of Hull73.65%00:40:47
55MikeINGHAMNDB 0.00%00:40:48
56LewisHOLLOWAYM 67.80%00:40:49
57AndrewWHITEM40 68.25%00:40:50
58ColinARMSTRONGM50 73.35%00:40:57
59StuartLAZENBYM45 70.35%00:41:05
60LauraHOLMESLCity Of Hull72.64%00:41:11
61StevePEACOCKM45Doncaster AC71.11%00:41:16
62JordanARNOTTMBeverley AC65.28%00:41:19
63JohnFLANAGANM 65.18%00:41:23
64CoreyARNOTTMBeverley AC65.15%00:41:24
65MichaelCRAIGM45White City Road Runners71.84%00:41:29
66MarkNOLANM40Woodkirk striders67.04%00:41:34
67MikeMc KINNEYM 64.76%00:41:39
68GarethMOYLEM 64.45%00:41:51
69DennisSPECKMPocklington RR64.40%00:41:53
70JonathanHAGYARDMU18 64.27%00:41:58
71SueHASLAML55Scarboro' AC84.99%00:42:00
72MarcusLANCASTLEM40Lincoln & Dist R R67.76%00:42:02
73TrevorBURTONM 64.15%00:42:03
74JohnPARHAMM 63.99%00:42:09
75MikePULLONM50Pocklington RR71.85%00:42:09
76LeslieHUDSONM50East Hull Harriers73.59%00:42:11
77PeterMULLERYM50Rothwell Harriers71.18%00:42:12
78ChrisFOXM 63.89%00:42:13
79RichardBRAMHAMM45Goole Vik Striders69.43%00:42:16
80PeterSTOCKDALEM45Barracuda Tri69.94%00:42:17
81PhilDEWBERRYM60Hull Springhead Harriers77.15%00:42:27
82MartinSMITHMYork Knavesmire Harriers64.68%00:42:29
83BaronieDREWL35 71.67%00:42:31
84ShaunTYMONM45Scarboro' AC67.69%00:42:42
85IanHOLMESM45 68.18%00:42:43
86StephenBOLTONM45Barracuda Tri67.16%00:43:02
87AndrewJOHNSONM40 64.68%00:43:05
88JulieMASTERMANL45Goole Vik Striders75.40%00:43:10
89JohnWRIGLESWORTHM60Rothwell Harriers78.16%00:43:10
90JamesCOLLINSM 62.34%00:43:16
91MatthewANHOLMMWithernsea Harriers62.32%00:43:17
92ShaneRUDDM40 65.72%00:43:20
93IanPARRISHM 63.84%00:43:21
94DavidDARTONM50York Knavesmire Harriers69.05%00:43:30
95GaryBALCHINM45Beverley AC66.80%00:43:36
96PaulLEWISM45York Acorn67.67%00:43:42
97SeanSMITHM 61.83%00:43:50
98CharlotteWARDLU18City Of Hull68.23%00:43:51
99JerryKIFTM50Rothwell Harriers70.15%00:43:53
100NicolePETERSLU18Kingston on Hull AC68.07%00:43:57
101GeoffBELLM55Scarboro' AC73.75%00:44:00
102NeilSHOREM 62.36%00:44:04
103CarlWILLIAMSM40 63.70%00:44:04
104MarkNETTLETONM40 64.63%00:44:04
105AndyBLAKEM40East Hull Harriers63.70%00:44:04
106MauriceTHORPEM50 68.08%00:44:07
107MarkNURSEM45Withernsea Harriers66.49%00:44:08
108PaulBERESFORDM50Rothwell Harriers69.08%00:44:12
109MarcusPAPEM40 64.64%00:44:23
110PaulHOLMESMPocklington RR60.66%00:44:28
111DominicMACMANUSM45White City Road Runners66.94%00:44:31
112MartinVICKERSM45York Acorn65.80%00:44:36
113GraemeWRIGHTSONMWhite City Road Runners60.39%00:44:40
114MatthewHAGYARDMU18 60.37%00:44:41
115RobGRAYM 60.37%00:44:41
116LucySTAMFORDL 66.60%00:44:55
117AndyWHITINGM40 62.40%00:44:59
118ColinLEAM40York Knavesmire Harriers63.27%00:45:01
119DavidPRESTONM55 69.49%00:45:03
120TerryHOPEM45 66.13%00:45:04
121PaulNEWMANM50Beverley AC68.26%00:45:06
122ScottMARRISONM 59.79%00:45:07
123PhillipREAYMHaltemprice RRC60.86%00:45:09
124RobinSMITHM55 69.29%00:45:11
125TimSIMPSONMBeverley AC59.65%00:45:13
126MichaelSTARLINGM45 64.38%00:45:14
127RichardALSOPM45East Hull Harriers65.84%00:45:16
128MartinBOTTERYM50 66.31%00:45:18
129AlisonTHORNTONL40Pocklington RR71.08%00:45:24
130PaulSANDERSONM45Virgin Active RR65.12%00:45:25
131PaulNIPPRESSM45 65.09%00:45:26
132MelvynCROSSM60East Hull Harriers72.06%00:45:27
133MikeDUNNM 59.33%00:45:28
134MaxHOUGHM 59.52%00:45:32
135PaulDRANSFIELDM40 61.62%00:45:33
136GrahamWHITELAMM 59.20%00:45:34
137ShaunWILLOXM45Barracuda Tri64.88%00:45:35
138TimRUNKEEM 59.15%00:45:36
139JohnNOLANM 59.41%00:45:37
140AlastairBORTHWICKM40 62.87%00:45:38
141KelvinWESTERMANM55East Hull Harriers69.21%00:45:38
142TerryLACYM45Rothwell Harriers63.24%00:45:42
143DominicRAWNSLEYM40 61.86%00:45:42
144NikFORMANM50Cleethorpe AC65.70%00:45:43
145AdeleANTCLIFFLRothwell Harriers65.42%00:45:44
146AlbertoGIROLAMIM40 62.25%00:45:45
147SteveLUNDM45Goole Vik Striders65.12%00:45:46
148GrahamSOUTHARDM45 65.05%00:45:49
149NeilDWYERM 59.13%00:45:50
150PhilipROBINSONM50White City Road Runners66.35%00:46:01
151ChrisDAKEYNEM45 63.72%00:46:03
152ChristopherHURDM50 65.06%00:46:10
153WayneDAWSONM 58.38%00:46:12
154MarcusBOURNEMPocklington RR59.43%00:46:14
155MartinYOUNGM45 64.41%00:46:16
156GavinATKINSONM 58.28%00:46:17
157MikLAMBERTM45Scarboro' AC64.30%00:46:21
158ScottBRUCEM45 62.33%00:46:22
159SarahHURDL40 67.85%00:46:23
160ClaireTRAYNORL35Beverley AC65.11%00:46:26
161MargeBONEL35 65.55%00:46:29
162CharlesBARTONM 57.99%00:46:31
163ChristopherGIBBSM45 64.02%00:46:33
164GaryLAWSM45 62.07%00:46:34
165BarryMADDISONM40 60.02%00:46:46
166DavidPARKM40 59.51%00:46:50
167MikeFOXM 57.57%00:46:51
168PaulCROSSLEYM55 68.61%00:46:52
169GrahamNAYLORM55White City Road Runners68.59%00:46:53
170NeilSERGEANTM50Beverley AC66.19%00:46:54
171JohnHORNCASTLEMHull Springhead Harriers57.76%00:46:55
172StevenHADLEYM45Beverley AC61.58%00:46:56
173TimPERMANM45 61.96%00:47:00
174PeterTHOMASM45 62.90%00:47:01
175LeeKIRKBYM 57.29%00:47:05
176CallumSMEATONM 57.94%00:47:06
177MichaelTASKERM65+York Acorn74.56%00:47:13
178AnnaDOUGHTYL35 64.93%00:47:18
179BarryFEASEYM60Hull Springhead Harriers70.60%00:47:19
180MarkHARRISONM40City Of Hull58.90%00:47:19
181RichardCAREWM 57.25%00:47:20
182AndrewBRANTM45Beverley AC61.87%00:47:26
183NealMADDENM50Beverley AC64.90%00:47:26
184WayneTESSIERM 56.85%00:47:27
185BrianWATTSM65+ 72.49%00:47:30
186NickMAYNARDM 57.43%00:47:31
187DavidROBINSONM60Beverley AC68.90%00:47:32
188CarolineGREENLBarton & Dist AC62.92%00:47:33
189GarySMITHM 56.71%00:47:34
190BradWILSONM 56.69%00:47:35
191CarliePAYLINGLGoole Vik Striders62.83%00:47:37
192ShaunFLETCHERM40Barton & Dist AC59.29%00:47:41
193AndyKELLYM45 61.46%00:47:45
194PhillipKYNMANM45 60.99%00:47:45
195MikeBAYSTONM45East Hull Harriers60.95%00:47:47
196PaulSTEPHENSONM 56.39%00:47:50
197JohnTATTERSALLM55York Acorn67.84%00:47:50
198SteveWATSONM 56.29%00:47:55
199JessicaMARRISONL 62.39%00:47:57
200KeithROSSM50Hull Springhead Harriers64.16%00:47:59
201GeoffELLISM 56.28%00:48:09
202SteveELLWOODM 57.01%00:48:12
203JodyHORTHM 55.94%00:48:13
204JohnSTEWARTM45 59.94%00:48:13
205MikeWILLISM60Scarboro' AC69.92%00:48:15
206IanMARRIOTTM40 58.13%00:48:17
207LeishaSCOTTL 61.94%00:48:18
208RichardKILNERM 55.83%00:48:19
209FayeJESSOPL35Pocklington RR63.52%00:48:21
210WendyHADGRAFTL40East Hull Harriers65.07%00:48:22
211MartinDAVIESM45 61.62%00:48:22
212MichaelDAVISM50Doncaster AC63.09%00:48:24
213DavidSWEETINGM 55.71%00:48:25
214GaryPARKERM40 57.93%00:48:27
215KatherineMOCKFORDL 61.75%00:48:27
216SimonSTEPHENSONM40 58.68%00:48:32
217RodneyHORROCKSM55 65.03%00:48:34
218DebbieWHITINGL35 63.17%00:48:37
219JamesBAMFORTHM 55.46%00:48:38
220MarkHUDSONMDoncaster AC56.88%00:48:39
221DaveHAREM45 59.39%00:48:40
222StephenALLENBYMCity Of Hull55.41%00:48:41
223CharliePALMERM45 60.66%00:48:45
224CliffordGALEM60Hull Springhead Harriers67.72%00:48:50
225DeborahADCOCKL45East Hull Harriers69.03%00:48:51
226JuliaBAGGSL 61.18%00:48:54
227StephenMARSHALLMScarboro' AC55.14%00:48:55
228MichaelPOLLARDMGoole Vik Striders55.12%00:48:56
229SteveCOOPERM45 60.88%00:48:57
230LeeJENKINSONM 55.73%00:48:58
231JeremyBEESLEYM45 60.23%00:49:06
232PatsyFENELONL55Goole Vik Striders75.74%00:49:08
233MattJEFFERYM 54.88%00:49:09
234SimonBARRETTM40 57.25%00:49:23
235RogerJOHNSM55 65.69%00:49:24
236GaryBOUFIELDM45 60.31%00:49:25
237SimonBRYSONM45 58.47%00:49:26
238JoshuaPEACOCKM 54.55%00:49:27
239DonnaGOLACHLCity Of Hull60.48%00:49:28
240NigelKIRBYM40Goole Vik Striders56.72%00:49:29
241SteveCHAPMANM40 57.50%00:49:32
242DanielHAMMONDMBeverley AC54.42%00:49:34
243VincePEACOCKM50 60.60%00:49:34
244StephenSTAPLESM50 62.61%00:49:35
245AndyHOLEYM40 56.17%00:49:37
246RobertBUDDM55 64.23%00:49:37
247VictoriaBAKERL 60.28%00:49:38
248ChrisBEAMERMU18 54.35%00:49:38
249PeterHADGRAFTM50East Hull Harriers60.97%00:49:40
250StuartGRAYM 54.27%00:49:42
251MarkGREAVESM 54.25%00:49:43
252PaulCOCKERILLNDB 0.00%00:49:44
253RobertHOOKMWhite City Road Runners54.22%00:49:45
254AndyHAGYARDM45 58.97%00:49:46
255DavidBOWDENM45 58.05%00:49:47
256StellaDINSDALEL55White City Road Runners74.73%00:49:48
257GrantLATUSM 54.15%00:49:49
258JohnMYERSM45 57.98%00:49:51
259SteveBRANAGANM40 56.69%00:49:52
260JamesDICKINSONM 54.69%00:49:54
261DeborahWATSONL45West Hull Ladies66.38%00:49:54
262ChrisFREEMANM 53.96%00:49:59
263DeborahBRANTL40Beverley AC63.48%00:49:59
264BarryCOOPERM60East Hull Harriers65.35%00:50:07
265RichardBERRYM40 57.21%00:50:09
266RobTAYLORM 54.76%00:50:11
267IainANDERSONM40Scarboro' AC55.91%00:50:12
268MichaelHOLMESM 54.72%00:50:13
269SteveFIELDM 53.70%00:50:14
270CarolineWOODL45 64.71%00:50:18
271DianneCOLEMANL45Beverley AC65.25%00:50:19
272NikiLOVELLL 59.44%00:50:20
273GaryPARKINSONM40 56.98%00:50:21
274JohnROWLEYM40 56.96%00:50:22
275NickMOYM 54.16%00:50:23
276RichardANNESSM45Goole Vik Striders57.34%00:50:24
277JedHOLDENM50Beverley AC61.53%00:50:27
278PetraBIRDL40 63.41%00:50:28
279AndersonMUTEMERERWAM40 56.40%00:50:30
280CathCOPELANDL40 62.79%00:50:32
281VerenaGOLACHL50City Of Hull67.97%00:50:32
282PaulMURPHYM40 55.49%00:50:35
283PaulBLACKBURNM50 61.31%00:50:38
284DavidSINGLETONM45 57.08%00:50:38
285GlynDIXONM 53.25%00:50:39
286MirandaROBINSONL35Beverley AC59.67%00:50:40
287SimonCRAGGSM40 55.00%00:50:40
288NatalieCOOKL40 62.63%00:50:40
289James PeterDUNFORDM 53.84%00:50:41
290StuartWILLIAMSONM45 57.35%00:50:47
291JohnCLARKM50 59.13%00:50:48
292DavePRIOR-JONESM 53.08%00:50:49
293Louise MarieAMBLERLRothwell Harriers58.85%00:50:50
294MathewMARCHANTM40 54.80%00:50:51
295CherylASHDOWNL45 63.98%00:50:52
296PaulMc CONNELLM 54.40%00:50:52
297LeeSWIFTM40City Of Hull55.86%00:50:59
298GrahamALLMENDINGERM 54.21%00:51:03
299SueVICARYL45Pocklington RR65.38%00:51:07
300HeatherMITCHELLL55Dewsbury Road Runners70.50%00:51:09
301MartynWESTM50 60.19%00:51:09
302DavidBORRILLM45East Hull Harriers58.23%00:51:11
303AnthonyMELLINGM60 65.26%00:51:11
304AndyBROWNM 52.65%00:51:14
305NeilHARDYM55 62.74%00:51:15
306PaulMARTINDALEM 52.49%00:51:23
307JohnBISHOPM 53.79%00:51:27
308PaulTENNISONM 52.26%00:51:37
309ThomasWALTHAMM 52.14%00:51:44
310JohnNUTTALLM 53.46%00:51:46
311AndrewHICKSONM40North Derby RC55.40%00:51:47
312LesleyO' MALLEYL 57.75%00:51:48
313DavidPICKERINGM55 62.63%00:51:49
314FionaHOLLANDL35Beverley AC59.75%00:51:49
315RickHALLM50 59.41%00:51:49
316DanielRIDPATHM 51.96%00:51:55
317PaulBALFOURM 51.96%00:51:55
318Graham JohnWALKERM55Goole Vik Striders60.84%00:51:55
319RichardSELLERSM 51.91%00:51:58
320MadeleineCHADWICKL35 58.16%00:51:59
321IanFERGUSSONM 52.86%00:51:59
322KennethFERGUSSONM 51.89%00:51:59
323GuyGIBSONM40 55.12%00:52:03
324RobertOLDRIDGEM45Goole Vik Striders56.36%00:52:04
325ShirleyOGLESBYL55East Hull Harriers69.83%00:52:11
326HelenBURGERM 51.67%00:52:12
327JonREASTM40 54.96%00:52:12
328MikePIGDONM50 57.52%00:52:13
329LorraineSLADEL35 58.34%00:52:14
330GemmaBELLETTLBeverley AC57.28%00:52:14
331StephenWATSONM 52.93%00:52:17
332SallyKINGSCOTTL40Scarboro' AC61.70%00:52:18
333DympnaCURRANL 57.17%00:52:20
334AmandaRITCHIEL45Beverley AC62.11%00:52:24
335DebraANDREWL45Goole Vik Striders62.03%00:52:28
336AlisonHARDYL35 58.46%00:52:32
337TerryLAWRENCEM55 60.66%00:52:32
338ChrisTHORNTONM40 53.41%00:52:33
339DanielZOBKIWM 51.28%00:52:36
340DebbieHEMSL40 60.31%00:52:37
341PaulHOWARDMBarton & Dist AC51.23%00:52:39
342AdrianHOLLANDM40Beverley AC52.91%00:52:40
343SusanWHITELEYL40 60.23%00:52:41
344HayleyGIBBSL35 57.73%00:52:47
345NeilPLUMMERM45Beverley AC56.39%00:52:51
346ChristianCURRYMBeverley AC52.35%00:52:52
347GavinMc BAINM50 57.26%00:52:53
348JanDRAPERL45 62.61%00:52:54
349DeborahDUNKERLEYL50Hull Springhead Harriers64.81%00:53:00
350DennisMc CARTHYM40 52.93%00:53:02
351JorgHARDEGEM45Beverley AC55.33%00:53:02
352PhilipNEWMARCHM 52.18%00:53:02
353StephenBROTHERTONMBeverley AC51.75%00:53:06
354StevenJONESM 50.59%00:53:19
355SteveGAMBLEM50 56.78%00:53:20
356AnitaCHAMBERSL 56.06%00:53:22
357MikeDUNNM60Headington Road Runners63.83%00:53:24
358SamDEARINGL35 57.48%00:53:26
359RichardEKEMU18 50.46%00:53:27
360SuzannePYMML 55.94%00:53:29
361CarolineTOLANL35 57.40%00:53:30
362RobertPRECIOUSM 51.31%00:53:33
363GarethWRIGHT -TTURNERNDB 0.00%00:53:33
364ChristopherROBINSONM 50.56%00:53:36
365John - PaulKELLYM 50.28%00:53:39
366KathrynHAMMONDL 55.68%00:53:44
367LyndaHIELDSLWest Hull Ladies55.64%00:53:46
368ShaneGRANT - SHAWM40 51.80%00:53:48
369MelanieGRANGERL50 65.03%00:53:50
370SamSHEPHERDSONL35Scarboro' AC56.53%00:53:54
371PhilSLINGSBYM 50.98%00:53:54
372LouiseWOODL 55.49%00:53:55
373JoanneJAGGERL35 55.63%00:53:55
374RebeccaBURGEL 55.47%00:53:56
375JohnSEAGRAVEM50 56.35%00:54:11
376DavidHICKSONM45 54.14%00:54:12
377DavidBARRASSM 49.75%00:54:13
378SoniaBARRETTL40 58.05%00:54:13
379BeverleyCOMPTONL40 59.50%00:54:14
380AlanSCARBOROUGHM45 54.08%00:54:16
381JoDEWARL55 65.78%00:54:16
382TrevorPETERSM45 53.65%00:54:17
383EllenWATKINSLCity Of Hull55.11%00:54:17
384ZoeyWILSONL35 55.62%00:54:21
385PamATKINSL60+Beverley AC71.56%00:54:24
386AndrewHUNTERM45 53.05%00:54:29
387EdwardBURNSM45 54.08%00:54:41
388SimonLEEM45 52.77%00:54:46
389HarryFORKINM60Scarboro' AC60.88%00:54:52
390JoanneDRANSFIELDL45 59.69%00:55:00
391JimWINDASSM60 59.31%00:55:13
392MandySIMMSL35 56.04%00:55:15
393DarrenMARTINM 50.07%00:55:16
394SusanHEALEYL 54.10%00:55:18
395JoanneTOWNSENDL35West Hull Ladies55.52%00:55:19
396AndrewMEESEMBeverley AC48.70%00:55:23
397ChrisFAIRHEADM 49.94%00:55:25
398DavidHIRSTM50 55.35%00:55:37
399KeithTHOMPSONM50Pocklington RR54.38%00:55:41
400JohnPAWSONM60City Of Hull61.15%00:55:44
401PaulO'BRIENM45 53.00%00:55:48
402TraceyBATYL40Pocklington RR57.79%00:55:50
403SarahDOWNESL35 54.08%00:55:54
404JoanneMOUNCEYL35Goole Vik Striders54.91%00:55:56
405BarryINZANIM45White City Road Runners52.75%00:56:04
406KeithHENNESSYNDBBridlington Road Runners0.00%00:56:12
407MichaelDUDILLM45 53.03%00:56:12
408MichaelHARDISTYM40Rothwell Harriers50.60%00:56:17
409NatalieMASONL35Rothwell Harriers54.01%00:56:25
410TrishLAVERICKL45City Of Hull59.70%00:56:29
411KarenHARPERL40Goole Vik Striders57.11%00:56:30
412HelenLEACHL40York Knavesmire Harriers56.60%00:56:32
413LesJONESM55 55.82%00:56:35
414StephenARCHERM 47.82%00:56:40
415RichardCOOKM 47.59%00:56:41
416Paul AnthonyADAMSM55Knavesmire Harriers57.23%00:56:42
417LizREIDL40 55.03%00:56:43
418CatherineLE TISSIERL50 61.73%00:56:43
419Nicola JayneKILFORDL35 53.68%00:56:46
420CarlMc DONALDM45 52.05%00:56:49
421VickyPULLENL35 54.01%00:56:52
422SallyCASSL40 54.87%00:56:53
423RachaelHARRINGTONLPocklington RR52.59%00:56:53
424PaulFURNESSM 48.65%00:56:53
425JonathanPHILLIPSM 47.39%00:56:55
426SharonHOUGHTONL50Scarboro' AC61.47%00:56:57
427TrevorCLARKM60 57.46%00:57:00
428KeithROBINSONM50 52.27%00:57:28
429HelenAPPLEBYL35 52.18%00:57:29
430PeterMc NALLYM65+Beverley AC61.19%00:57:32
431FrankHARRISONM65+City Of Hull63.22%00:57:38
432ValerieBELLL60+Scarboro' AC65.24%00:57:39
433DeborahTATEL40 55.03%00:57:40
434NickHUGHESM45 50.14%00:58:05
435SusanFAIRCLOUGHL40 54.94%00:58:15
436GarethWILLIAMSM45 50.64%00:58:24
437ClaireCOWLINGL40 53.43%00:58:25
438MarkLEIGHTONM45 49.84%00:58:26
439AndrewCLARKEM40White City Road Runners49.10%00:58:26
440JoanneKINGL 51.15%00:58:29
441JohnTOMLISONM50 51.29%00:58:34
442KevinANHOLMM50Withernsea Harriers51.24%00:58:37
443AlistairMEAKINM45 50.42%00:58:39
444SusanHINDLEL35 51.14%00:58:39
445ClaireBURCHAML35Beverley AC51.13%00:58:40
446JohannaVICARYLPocklington RR50.94%00:58:44
447YendisWESTERMANL50West Hull Ladies59.93%00:58:59
448JackGRIEVEMU18 45.72%00:59:00
449LaurenceLOFTM65+ 59.45%00:59:13
450RichardALLANM 45.52%00:59:15
451KennethALLANM50 51.93%00:59:17
452CarlWINDSORM50 50.64%00:59:19
453TimHARPERM40Goole Vik Striders48.31%00:59:23
454DonnaTHOMPSONL35 51.21%00:59:30
455HeidiMEEKEL35 51.21%00:59:30
456DanielMEEKEM 46.18%00:59:30
457RaySHEARDOWNM 45.84%00:59:32
458NatashhaPETERSONL 50.25%00:59:32
459StephenFLETCHERM55Pocklington RR54.01%00:59:32
460HelenHUNTINGTONL40 52.75%00:59:40
461LouiseGARNERLWest Hull Ladies50.13%00:59:41
462PeterDRAPERM50White City Road Runners50.74%00:59:41
463SarahWILSONL45 54.46%00:59:46
464JaneWARWICKL40 52.16%00:59:50
465ElaineJULIANL45Beverley AC54.26%00:59:59
466GrahamBENTONM50Maltby Running Club51.31%01:00:00
467AlisonWILDEYL40 53.20%01:00:09
468SueDAVIESL40 53.20%01:00:09
469ShaunKENTM40 47.05%01:00:32
470AndrewKENNYM 44.53%01:00:34
471DavidSMITHM40 47.26%01:00:42
472CarolineWALKERL50Goole Vik Striders58.21%01:00:44
473TracyHOLWELLL40 53.09%01:00:47
474CarolBUGGL45 54.96%01:00:48
475PeterTHOMPSONM45 48.56%01:00:54
476SharonWORLEYL35 50.42%01:00:55
477MalcolmROBERTSM50 50.08%01:00:58
478GarrySHIELDSM 44.24%01:00:58
479MartynSMALLWOODM 44.24%01:00:58
480AnthonyKNIGHTM55 52.27%01:01:31
481FionaHAMPTONL40White City Road Runners52.41%01:01:34
482BeckyNEWTONL 48.57%01:01:36
483GaryWILKINSONM 44.30%01:01:36
484KarenBEDFORDL 48.54%01:01:38
485SusanHERDSMANL50 56.15%01:01:45
486SallyUTLEYLPocklington RR48.42%01:01:47
487JennyMETCALFELPocklington RR48.33%01:01:54
488ShaneFOSTERM40 45.57%01:02:02
489DavidBEDFORDM 43.42%01:02:07
490DawnROBERTSL35 48.25%01:02:10
491MichaelLESLIEM45 47.13%01:02:16
492MichelleATKINSL40York Knavesmire Harriers51.25%01:02:26
493JoannePOWLEYL 47.89%01:02:28
494StephaneyGAWTHORPEL40 49.97%01:02:28
495CarolFLETCHERL45 53.98%01:02:28
496JayneNUTTALLL40 50.77%01:02:30
497AntoniaGOODISONLWest Hull Ladies47.87%01:02:30
498TaraO'NEILLL 47.83%01:02:33
499CherylSTAGGL35 48.17%01:02:46
500KimCULPANL45 52.31%01:02:46
501JeanetteHASKINSL45 51.78%01:02:51
502RobertGRAINGERM60 52.08%01:02:53
503SusanTHORPL35Beverley AC48.44%01:03:24
504LesleyMc BAINL40 49.26%01:03:53
505ElainePAINTERL35 47.24%01:04:00
506CatherineGREENFIELDL45 50.72%01:04:10
507MichaelPADGHAMM50Scarboro' AC47.89%01:04:17
508CarolineHARDYL 46.48%01:04:22
509JuliePARKINSONL40 49.23%01:04:27
510DianaTHOMPSONL45Pocklington RR50.91%01:04:29
511RaquelGARCIA AQUADOLBeverley AC46.32%01:04:35
512SarahBLAGDONL45 51.66%01:04:41
513MargaretROBINSONL60+ 59.34%01:04:51
514ElizabethEASTERBYL45 50.15%01:04:54
515KarenHARRISONL50 53.93%01:04:55
516GemmaSELLERSL 46.06%01:04:57
517KarlSTAINESM 41.63%01:05:06
518GarethLARKINM 41.41%01:05:08
519JacquelineMOORL45 50.14%01:05:29
520MarieTAYLORL 45.56%01:05:40
521SarahCOLLIERL35 47.14%01:05:41
522PaulGILLILANDM45 44.61%01:05:47
523WilliamFITZPATRICKM 40.99%01:05:48
524KellyJACKSONL 45.12%01:06:18
525MariaTIERNEYL45 50.86%01:06:18
526AndrewKINGM 40.67%01:06:19
527RosemarieADAMSONL35 44.93%01:06:46
528LouiseWILSONL35 45.28%01:06:46
529AmandaDILLONL 44.62%01:07:03
530LorraineSNEDDONM45 42.76%01:07:35
531SueIGOEL45York Knavesmire Harriers48.22%01:08:05
532JuliaLAWRENCEL35 45.41%01:08:11
533MarshallSANDERSONM60 48.92%01:08:17
534MarkLOFTM40 41.15%01:08:42
535TracyDAYL 42.76%01:09:58
536LisaDAVIESL35 43.21%01:09:58
537AndyMANNM45 40.93%01:10:37
538AnneRICHARDSONL45 45.84%01:11:00
539TinaANHOLML50Withernsea Harriers49.22%01:11:08
540RobertREAYM60Haltemprice RRC47.30%01:11:20
541SusanDYEL40 43.98%01:12:09
542MoiraMUNDIEL60+ 53.01%01:13:26
543IreneKOPANSKAL35 40.33%01:14:58
544JeanBALLSL45 43.25%01:16:35
545ClaireHASTIEL 38.95%01:16:48
546NickieWRAYL35 37.47%01:21:20
547MichellePADDISONL35 37.47%01:21:20
548AmandaBIRDL45 41.46%01:21:20
549AlisonHAYNESL40 37.05%01:27:05
Back to year index - Top of page